CheckWX is a tool to help pilots better visualize weather data.  It is not intended as a substitute for an official pre-flight weather briefing.

07:12:08 UTC

VTPH TAF
Hua Hin Airport
Hua Hin, Thailand
TAF VTPH 200500Z 2006/2106 23005KT 9999 SCT030 TEMPO 2006/2010 VRB10KT 6000 -TSRA FEW018CB SCT030 BKN100

Jun-20@
06:00 UTC

Jun-20 @ 06:00 UTC

Jun-21@
06:00 UTC

Jun-21 @ 06:00 UTC

TAF VTPH 200500Z 2006/2106 23005KT 9999 SCT030
Wind
  • 230° at 5 KTS
Cloud Levels
  • Scattered at 3,000' AGL

Jun-20@
06:00 UTC

Jun-20 @ 06:00 UTC

Jun-20@
10:00 UTC

Jun-20 @ 10:00 UTC

TEMPO 2006/2010 VRB10KT 6000 -TSRA FEW018CB SCT030 BKN100

Temporary

Temporary Changes expected for less than half the time period

Wind
  • Variable at 10 KTS
Conditions
Light Thunderstorm, Light Rain
Cloud Levels
  • Few at 1,800' AGL
  • Scattered at 3,000' AGL
  • Broken at 10,000' AGL